| time (UTC) | temp C | wind direction | speed KPH | gust KPH | rain 1hr cm | rain 24hr cm | rain mn cm | humidity % | barometer mb |
| 20260502152145 | 27 | 200 | 0.0 | 4.8 | 0.00 | 0.00 | 0.00 | 20 | 1013.9 |
| 20260502151909 | 27 | 206 | 0.0 | 1.6 | 0.00 | 0.00 | 0.00 | 21 | 1013.8 |
| 20260502151143 | 27 | 206 | 0.0 | 0.0 | 0.00 | 0.00 | 0.00 | 21 | 1013.8 |
| 20260502150642 | 27 | 206 | 0.0 | 0.0 | 0.00 | 0.00 | 0.00 | 22 | 1013.8 |
| 20260502150143 | 26 | 206 | 0.0 | 3.2 | 0.00 | 0.00 | 0.00 | 22 | 1013.7 |
| 20260502130635 | 20 | 217 | 0.0 | 0.0 | 0.00 | 0.00 | 0.00 | 33 | 1012.4 |
| 20260502130136 | 19 | 217 | 0.0 | 0.0 | 0.00 | 0.00 | 0.00 | 34 | 1012.3 |
| 20260502123723 | 18 | 217 | 0.0 | 0.0 | 0.00 | 0.00 | 0.00 | 39 | 1011.8 |
| 20260502122856 | 18 | 217 | 0.0 | 0.0 | 0.00 | 0.00 | 0.00 | 44 | 1011.7 |
| 20260502122126 | 18 | 217 | 0.0 | 0.0 | 0.00 | 0.00 | 0.00 | 44 | 1011.6 |
| 20260502121625 | 18 | 217 | 0.0 | 0.0 | 0.00 | 0.00 | 0.00 | 42 | 1011.6 |
| 20260502121123 | 18 | 217 | 0.0 | 0.0 | 0.00 | 0.00 | 0.00 | 42 | 1011.6 |
| 20260502120626 | 18 | 217 | 0.0 | 0.0 | 0.00 | 0.00 | 0.00 | 42 | 1011.6 |
| 20260502120344 | 18 | 217 | 0.0 | 0.0 | 0.00 | 0.00 | 0.00 | 41 | 1011.6 |
| 20260502115623 | 18 | 217 | 0.0 | 0.0 | 0.00 | 0.00 | 0.00 | 40 | 1011.6 |
| 20260502115122 | 19 | 217 | 0.0 | 0.0 | 0.00 | 0.00 | 0.00 | 39 | 1011.6 |
| 20260502114624 | 19 | 217 | 0.0 | 0.0 | 0.00 | 0.00 | 0.00 | 38 | 1011.5 |
| 20260502114123 | 19 | 217 | 0.0 | 0.0 | 0.00 | 0.00 | 0.00 | 40 | 1011.5 |
| 20260502113619 | 19 | 217 | 0.0 | 0.0 | 0.00 | 0.00 | 0.00 | 35 | 1011.5 |
| 20260502113116 | 20 | 217 | 0.0 | 0.0 | 0.00 | 0.00 | 0.00 | 34 | 1011.5 |
| 20260502112615 | 20 | 217 | 0.0 | 0.0 | 0.00 | 0.00 | 0.00 | 33 | 1011.4 |
| 20260502112113 | 20 | 217 | 0.0 | 0.0 | 0.00 | 0.00 | 0.00 | 32 | 1011.4 |
| 20260502111827 | 20 | 217 | 0.0 | 0.0 | 0.00 | 0.00 | 0.00 | 32 | 1011.3 |
| 20260502111110 | 20 | 217 | 0.0 | 0.0 | 0.00 | 0.00 | 0.00 | 32 | 1011.3 |
| 20260502110608 | 21 | 217 | 0.0 | 0.0 | 0.00 | 0.00 | 0.00 | 31 | 1011.3 |
| 20260502110108 | 21 | 217 | 0.0 | 0.0 | 0.00 | 0.00 | 0.00 | 30 | 1011.3 |
| 20260502105831 | 21 | 217 | 0.0 | 0.0 | 0.00 | 0.00 | 0.00 | 30 | 1011.3 |
| 20260502105331 | 21 | 217 | 0.0 | 0.0 | 0.00 | 0.00 | 0.00 | 30 | 1011.4 |
| 20260502104602 | 21 | 217 | 0.0 | 0.0 | 0.00 | 0.00 | 0.00 | 30 | 1011.3 |
| 20260502104100 | 21 | 217 | 0.0 | 0.0 | 0.00 | 0.00 | 0.00 | 30 | 1011.3 |
| 20260502103558 | 21 | 217 | 0.0 | 0.0 | 0.00 | 0.00 | 0.00 | 30 | 1011.3 |
| 20260502103056 | 21 | 217 | 0.0 | 0.0 | 0.00 | 0.00 | 0.00 | 31 | 1011.1 |
| 20260502102817 | 21 | 217 | 0.0 | 0.0 | 0.00 | 0.00 | 0.00 | 30 | 1011.1 |
| 20260502102547 | 21 | 217 | 0.0 | 0.0 | 0.00 | 0.00 | 0.00 | 29 | 1011.1 |
| 20260502101819 | 22 | 217 | 0.0 | 0.0 | 0.00 | 0.00 | 0.00 | 30 | 1011.1 |
| 20260502101057 | 22 | 217 | 0.0 | 0.0 | 0.00 | 0.00 | 0.00 | 29 | 1011.1 |
| 20260502100555 | 22 | 217 | 0.0 | 0.0 | 0.00 | 0.00 | 0.00 | 28 | 1011.1 |
| 20260502091051 | 23 | 217 | 0.0 | 0.0 | 0.00 | 0.00 | 0.00 | 25 | 1010.8 |
| 20260502090550 | 23 | 217 | 0.0 | 0.0 | 0.00 | 0.00 | 0.00 | 25 | 1010.7 |
| 20260502071047 | 22 | 203 | 0.0 | 0.0 | 0.00 | 0.00 | 0.00 | 33 | 1010.2 |
| 20260502070546 | 22 | 202 | 0.0 | 0.0 | 0.00 | 0.00 | 0.00 | 31 | 1010.1 |
| 20260502070045 | 22 | 202 | 0.0 | 0.0 | 0.00 | 0.00 | 0.00 | 32 | 1010.0 |
| 20260502070030 | 22 | 202 | 0.0 | 0.0 | 0.00 | 0.00 | 0.00 | 32 | 1010.1 |
| 20260502065045 | 22 | 202 | 0.0 | 0.0 | 0.00 | 0.00 | 0.00 | 34 | 1010.1 |
| 20260502064545 | 23 | 202 | 0.0 | 0.0 | 0.00 | 0.00 | 0.00 | 33 | 1010.1 |
| 20260502064045 | 23 | 202 | 0.0 | 0.0 | 0.00 | 0.00 | 0.00 | 26 | 1010.1 |
| 20260502063809 | 23 | 202 | 0.0 | 0.0 | 0.00 | 0.00 | 0.00 | 26 | 1009.9 |
| 20260502063308 | 23 | 202 | 0.0 | 0.0 | 0.00 | 0.00 | 0.00 | 26 | 1009.9 |
| 20260502062543 | 23 | 202 | 0.0 | 0.0 | 0.00 | 0.00 | 0.00 | 26 | 1010.0 |
| 20260502062043 | 23 | 202 | 0.0 | 0.0 | 0.00 | 0.00 | 0.00 | 26 | 1009.8 |
| 20260502061809 | 23 | 202 | 0.0 | 0.0 | 0.00 | 0.00 | 0.00 | 25 | 1009.8 |
| 20260502061044 | 23 | 202 | 0.0 | 0.0 | 0.00 | 0.00 | 0.00 | 25 | 1009.7 |
| 20260502060544 | 23 | 202 | 0.0 | 0.0 | 0.00 | 0.00 | 0.00 | 25 | 1009.7 |
| 20260502060535 | 23 | 202 | 0.0 | 0.0 | 0.00 | 0.00 | 0.00 | 26 | 1009.7 |
| 20260502055544 | 24 | 202 | 0.0 | 0.0 | 0.00 | 0.00 | 0.00 | 26 | 1009.6 |
| 20260502055043 | 24 | 202 | 0.0 | 0.0 | 0.00 | 0.00 | 0.00 | 28 | 1009.6 |
| 20260502054543 | 24 | 202 | 0.0 | 0.0 | 0.00 | 0.00 | 0.00 | 26 | 1009.7 |
| 20260502054045 | 24 | 202 | 0.0 | 0.0 | 0.00 | 0.00 | 0.00 | 25 | 1009.7 |
| 20260502053543 | 24 | 202 | 0.0 | 0.0 | 0.00 | 0.00 | 0.00 | 25 | 1009.7 |
| 20260502053312 | 25 | 202 | 0.0 | 0.0 | 0.00 | 0.00 | 0.00 | 24 | 1009.6 |
| 20260502052903 | 25 | 202 | 0.0 | 0.0 | 0.00 | 0.00 | 0.00 | 24 | 1009.5 |
| 20260502052838 | 25 | 202 | 0.0 | 0.0 | 0.00 | 0.00 | 0.00 | 24 | 1009.5 |
| 20260502051542 | 25 | 202 | 0.0 | 0.0 | 0.00 | 0.00 | 0.00 | 23 | 1009.6 |
| 20260502051304 | 25 | 202 | 0.0 | 0.0 | 0.00 | 0.00 | 0.00 | 24 | 1009.6 |
| 20260502050806 | 25 | 202 | 0.0 | 0.0 | 0.00 | 0.00 | 0.00 | 22 | 1009.5 |
| 20260502050041 | 25 | 202 | 0.0 | 0.0 | 0.00 | 0.00 | 0.00 | 22 | 1009.4 |
| 20260502045542 | 25 | 202 | 0.0 | 0.0 | 0.00 | 0.00 | 0.00 | 22 | 1009.4 |
| 20260502045306 | 26 | 202 | 0.0 | 0.0 | 0.00 | 0.00 | 0.00 | 22 | 1009.3 |
| 20260502044542 | 26 | 202 | 0.0 | 0.0 | 0.00 | 0.00 | 0.00 | 23 | 1009.3 |
| 20260502044316 | 26 | 202 | 0.0 | 0.0 | 0.00 | 0.00 | 0.00 | 23 | 1009.3 |
| 20260502043541 | 26 | 202 | 0.0 | 0.0 | 0.00 | 0.00 | 0.00 | 23 | 1009.2 |
| 20260502043042 | 26 | 202 | 0.0 | 0.0 | 0.00 | 0.00 | 0.00 | 23 | 1009.3 |
| 20260502042538 | 26 | 202 | 0.0 | 0.0 | 0.00 | 0.00 | 0.00 | 23 | 1009.3 |
| 20260502042306 | 26 | 202 | 0.0 | 0.0 | 0.00 | 0.00 | 0.00 | 23 | 1009.2 |
| 20260502041539 | 26 | 202 | 0.0 | 0.0 | 0.00 | 0.00 | 0.00 | 22 | 1009.0 |
| 20260502041040 | 26 | 202 | 0.0 | 0.0 | 0.00 | 0.00 | 0.00 | 22 | 1008.9 |
| 20260502040540 | 27 | 202 | 0.0 | 0.0 | 0.00 | 0.00 | 0.00 | 22 | 1008.9 |
| 20260502040039 | 27 | 202 | 0.0 | 0.0 | 0.00 | 0.00 | 0.00 | 21 | 1008.9 |
| 20260502035540 | 27 | 202 | 0.0 | 0.0 | 0.00 | 0.00 | 0.00 | 21 | 1008.9 |
| 20260502035040 | 27 | 202 | 0.0 | 0.0 | 0.00 | 0.00 | 0.00 | 21 | 1008.8 |
| 20260502034540 | 27 | 202 | 0.0 | 0.0 | 0.00 | 0.00 | 0.00 | 19 | 1008.7 |
| 20260502034040 | 27 | 202 | 0.0 | 0.0 | 0.00 | 0.00 | 0.00 | 19 | 1008.7 |
| 20260502033542 | 28 | 202 | 0.0 | 0.0 | 0.00 | 0.00 | 0.00 | 20 | 1008.6 |
| 20260502033041 | 28 | 202 | 0.0 | 0.0 | 0.00 | 0.00 | 0.00 | 20 | 1008.5 |
| 20260502032537 | 28 | 202 | 0.0 | 0.0 | 0.00 | 0.00 | 0.00 | 19 | 1008.5 |
| 20260502032038 | 28 | 202 | 0.0 | 0.0 | 0.00 | 0.00 | 0.00 | 19 | 1008.5 |
| 20260502031538 | 28 | 202 | 0.0 | 0.0 | 0.00 | 0.00 | 0.00 | 19 | 1008.4 |
| 20260502031038 | 28 | 202 | 0.0 | 0.0 | 0.00 | 0.00 | 0.00 | 19 | 1008.3 |
| 20260502030539 | 28 | 202 | 0.0 | 0.0 | 0.00 | 0.00 | 0.00 | 19 | 1008.2 |
| 20260502030038 | 28 | 202 | 0.0 | 0.0 | 0.00 | 0.00 | 0.00 | 19 | 1008.2 |
| 20260502025540 | 29 | 202 | 0.0 | 0.0 | 0.00 | 0.00 | 0.00 | 19 | 1008.2 |
| 20260502025300 | 29 | 202 | 0.0 | 3.2 | 0.00 | 0.00 | 0.00 | 18 | 1008.2 |
| 20260502024538 | 29 | 202 | 0.0 | 3.2 | 0.00 | 0.00 | 0.00 | 18 | 1008.1 |
| 20260502024038 | 29 | 202 | 0.0 | 3.2 | 0.00 | 0.00 | 0.00 | 18 | 1008.1 |
| 20260502023536 | 30 | 202 | 0.0 | 3.2 | 0.00 | 0.00 | 0.00 | 18 | 1008.0 |
| 20260502023035 | 30 | 202 | 1.6 | 9.7 | 0.00 | 0.00 | 0.00 | 18 | 1008.0 |
| 20260502022534 | 30 | 202 | 4.8 | 14.5 | 0.00 | 0.00 | 0.00 | 18 | 1007.8 |
| 20260502022035 | 30 | 203 | 3.2 | 14.5 | 0.00 | 0.00 | 0.00 | 17 | 1007.9 |
| 20260502021536 | 30 | 202 | 0.0 | 11.3 | 0.00 | 0.00 | 0.00 | 17 | 1007.9 |
| 20260502021036 | 30 | 202 | 3.2 | 14.5 | 0.00 | 0.00 | 0.00 | 18 | 1007.8 |
| 20260502020536 | 30 | 202 | 4.8 | 14.5 | 0.00 | 0.00 | 0.00 | 18 | 1007.7 |
| 20260502020036 | 30 | 201 | 1.6 | 12.9 | 0.00 | 0.00 | 0.00 | 17 | 1007.7 |
| 20260502015537 | 31 | 207 | 3.2 | 12.9 | 0.00 | 0.00 | 0.00 | 17 | 1007.7 |
| 20260502015037 | 31 | 206 | 3.2 | 12.9 | 0.00 | 0.00 | 0.00 | 16 | 1007.7 |
| 20260502014537 | 31 | 207 | 1.6 | 16.1 | 0.00 | 0.00 | 0.00 | 17 | 1007.7 |
| 20260502014037 | 31 | 209 | 1.6 | 16.1 | 0.00 | 0.00 | 0.00 | 17 | 1007.6 |
| 20260502013537 | 31 | 215 | 3.2 | 11.3 | 0.00 | 0.00 | 0.00 | 16 | 1007.5 |
| 20260502013036 | 31 | 215 | 4.8 | 11.3 | 0.00 | 0.00 | 0.00 | 16 | 1007.5 |
| 20260502012537 | 31 | 219 | 3.2 | 11.3 | 0.00 | 0.00 | 0.00 | 15 | 1007.5 |
| 20260502012036 | 31 | 189 | 1.6 | 9.7 | 0.00 | 0.00 | 0.00 | 16 | 1007.5 |
| 20260502011533 | 32 | 183 | 1.6 | 12.9 | 0.00 | 0.00 | 0.00 | 17 | 1007.7 |
| 20260502011254 | 32 | 218 | 1.6 | 12.9 | 0.00 | 0.00 | 0.00 | 17 | 1007.7 |
| 20260502010533 | 32 | 229 | 0.0 | 14.5 | 0.00 | 0.00 | 0.00 | 16 | 1007.7 |
| 20260502010033 | 32 | 229 | 0.0 | 14.5 | 0.00 | 0.00 | 0.00 | 16 | 1007.8 |
| 20260502005533 | 32 | 238 | 0.0 | 6.4 | 0.00 | 0.00 | 0.00 | 16 | 1007.7 |
| 20260502005035 | 32 | 242 | 1.6 | 12.9 | 0.00 | 0.00 | 0.00 | 15 | 1007.7 |
| 20260502004534 | 32 | 242 | 1.6 | 12.9 | 0.00 | 0.00 | 0.00 | 16 | 1007.8 |
| 20260502004031 | 32 | 190 | 1.6 | 9.7 | 0.00 | 0.00 | 0.00 | 16 | 1007.8 |
| 20260502003533 | 32 | 190 | 1.6 | 9.7 | 0.00 | 0.00 | 0.00 | 17 | 1007.8 |
| 20260502003032 | 32 | 190 | 0.0 | 9.7 | 0.00 | 0.00 | 0.00 | 16 | 1007.7 |
| 20260502002532 | 32 | 236 | 0.0 | 4.8 | 0.00 | 0.00 | 0.00 | 17 | 1007.8 |
| 20260502002033 | 32 | 232 | 0.0 | 0.0 | 0.00 | 0.00 | 0.00 | 17 | 1007.8 |
| 20260502001532 | 32 | 232 | 0.0 | 1.6 | 0.00 | 0.00 | 0.00 | 17 | 1007.9 |
| 20260502001033 | 32 | 232 | 0.0 | 1.6 | 0.00 | 0.00 | 0.00 | 17 | 1007.9 |
| 20260502000533 | 32 | 302 | 0.0 | 1.6 | 0.00 | 0.00 | 0.00 | 18 | 1007.8 |
| 20260502000032 | 33 | 296 | 0.0 | 16.1 | 0.00 | 0.00 | 0.00 | 17 | 1007.9 |
| 20260501235532 | 33 | 225 | 1.6 | 16.1 | 0.00 | 0.00 | 0.00 | 18 | 1008.0 |
| 20260501235032 | 32 | 231 | 1.6 | 9.7 | 0.00 | 0.00 | 0.00 | 18 | 1008.0 |
| 20260501234528 | 32 | 191 | 6.4 | 19.3 | 0.00 | 0.00 | 0.00 | 18 | 1008.0 |
| 20260501234027 | 32 | 240 | 6.4 | 19.3 | 0.00 | 0.00 | 0.00 | 18 | 1007.9 |
| 20260501233748 | 32 | 250 | 3.2 | 14.5 | 0.00 | 0.00 | 0.00 | 18 | 1007.9 |
| 20260501233026 | 32 | 164 | 3.2 | 16.1 | 0.00 | 0.00 | 0.00 | 18 | 1008.0 |
| 20260501232526 | 32 | 222 | 3.2 | 16.1 | 0.00 | 0.00 | 0.00 | 18 | 1008.1 |
| 20260501232026 | 32 | 273 | 1.6 | 11.3 | 0.00 | 0.00 | 0.00 | 19 | 1008.0 |
| 20260501231527 | 32 | 207 | 3.2 | 16.1 | 0.00 | 0.00 | 0.00 | 19 | 1008.0 |
| 20260501231027 | 32 | 219 | 3.2 | 19.3 | 0.00 | 0.00 | 0.00 | 18 | 1008.1 |
| 20260501230526 | 32 | 144 | 0.0 | 19.3 | 0.00 | 0.00 | 0.00 | 18 | 1008.1 |
| 20260501230514 | 32 | 258 | 0.0 | 0.0 | 0.00 | 0.00 | 0.00 | 19 | 1008.2 |
| 20260501225523 | 32 | 90 | 0.0 | 0.0 | 0.00 | 0.00 | 0.00 | 19 | 1008.2 |
| 20260501225023 | 32 | 89 | 0.0 | 6.4 | 0.00 | 0.00 | 0.00 | 19 | 1008.2 |
| 20260501224527 | 32 | 219 | 0.0 | 6.4 | 0.00 | 0.00 | 0.00 | 19 | 1008.4 |
| 20260501224029 | 32 | 211 | 0.0 | 1.6 | 0.00 | 0.00 | 0.00 | 19 | 1008.4 |
| 20260501223529 | 32 | 217 | 0.0 | 0.0 | 0.00 | 0.00 | 0.00 | 19 | 1008.4 |
| 20260501223026 | 32 | 241 | 0.0 | 3.2 | 0.00 | 0.00 | 0.00 | 19 | 1008.6 |
| 20260501222526 | 32 | 240 | 0.0 | 9.7 | 0.00 | 0.00 | 0.00 | 19 | 1008.7 |
| 20260501222028 | 32 | 296 | 0.0 | 9.7 | 0.00 | 0.00 | 0.00 | 19 | 1008.7 |
| 20260501221527 | 32 | 215 | 0.0 | 1.6 | 0.00 | 0.00 | 0.00 | 18 | 1008.7 |
| 20260501221027 | 32 | 64 | 0.0 | 0.0 | 0.00 | 0.00 | 0.00 | 18 | 1008.8 |
| 20260501220526 | 32 | 247 | 0.0 | 3.2 | 0.00 | 0.00 | 0.00 | 18 | 1008.9 |
| 20260501220024 | 32 | 246 | 0.0 | 14.5 | 0.00 | 0.00 | 0.00 | 17 | 1009.0 |
| 20260501215524 | 32 | 269 | 0.0 | 14.5 | 0.00 | 0.00 | 0.00 | 17 | 1009.2 |
| 20260501215024 | 32 | 281 | 0.0 | 1.6 | 0.00 | 0.00 | 0.00 | 18 | 1009.3 |
| 20260501214526 | 32 | 245 | 0.0 | 12.9 | 0.00 | 0.00 | 0.00 | 17 | 1009.2 |
| 20260501214024 | 32 | 259 | 0.0 | 12.9 | 0.00 | 0.00 | 0.00 | 17 | 1009.4 |
| 20260501213524 | 32 | 279 | 1.6 | 8.0 | 0.00 | 0.00 | 0.00 | 17 | 1009.5 |
| 20260501213025 | 32 | 232 | 4.8 | 16.1 | 0.00 | 0.00 | 0.00 | 16 | 1009.6 |
| 20260501212525 | 32 | 231 | 4.8 | 16.1 | 0.00 | 0.00 | 0.00 | 17 | 1009.8 |
| 20260501212026 | 31 | 193 | 3.2 | 14.5 | 0.00 | 0.00 | 0.00 | 17 | 1009.8 |
| 20260501211756 | 31 | 229 | 3.2 | 14.5 | 0.00 | 0.00 | 0.00 | 18 | 1009.8 |
| 20260501211022 | 31 | 244 | 4.8 | 14.5 | 0.00 | 0.00 | 0.00 | 19 | 1009.9 |
| 20260501210522 | 31 | 245 | 4.8 | 17.7 | 0.00 | 0.00 | 0.00 | 20 | 1009.9 |
| 20260501210020 | 31 | 222 | 1.6 | 17.7 | 0.00 | 0.00 | 0.00 | 21 | 1010.0 |
| 20260501205521 | 30 | 210 | 0.0 | 1.6 | 0.00 | 0.00 | 0.00 | 21 | 1010.0 |
| 20260501205020 | 31 | 275 | 0.0 | 4.8 | 0.00 | 0.00 | 0.00 | 21 | 1010.1 |
| 20260501204520 | 31 | 311 | 0.0 | 8.0 | 0.00 | 0.00 | 0.00 | 21 | 1010.1 |
| 20260501204021 | 31 | 217 | 0.0 | 8.0 | 0.00 | 0.00 | 0.00 | 21 | 1010.3 |
| 20260501203521 | 31 | 303 | 1.6 | 14.5 | 0.00 | 0.00 | 0.00 | 20 | 1010.2 |
| 20260501203021 | 31 | 243 | 3.2 | 16.1 | 0.00 | 0.00 | 0.00 | 20 | 1010.4 |
| 20260501202521 | 31 | 196 | 1.6 | 16.1 | 0.00 | 0.00 | 0.00 | 21 | 1010.5 |
| 20260501202021 | 30 | 223 | 3.2 | 14.5 | 0.00 | 0.00 | 0.00 | 21 | 1010.4 |
| 20260501202003 | 30 | 267 | 6.4 | 19.3 | 0.00 | 0.00 | 0.00 | 21 | 1010.5 |
| 20260501201020 | 30 | 287 | 3.2 | 19.3 | 0.00 | 0.00 | 0.00 | 21 | 1010.6 |
| 20260501200518 | 30 | 238 | 0.0 | 17.7 | 0.00 | 0.00 | 0.00 | 21 | 1010.6 |
| 20260501200241 | 30 | 182 | 0.0 | 12.9 | 0.00 | 0.00 | 0.00 | 22 | 1010.7 |
| 20260501195519 | 30 | 204 | 1.6 | 14.5 | 0.00 | 0.00 | 0.00 | 22 | 1010.7 |
| 20260501195020 | 30 | 158 | 1.6 | 14.5 | 0.00 | 0.00 | 0.00 | 22 | 1010.7 |
| 20260501194519 | 30 | 184 | 0.0 | 8.0 | 0.00 | 0.00 | 0.00 | 22 | 1010.7 |
| 20260501194020 | 30 | 186 | 0.0 | 6.4 | 0.00 | 0.00 | 0.00 | 22 | 1010.9 |
| 20260501193520 | 30 | 207 | 0.0 | 6.4 | 0.00 | 0.00 | 0.00 | 22 | 1011.1 |
| 20260501193020 | 30 | 197 | 1.6 | 14.5 | 0.00 | 0.00 | 0.00 | 22 | 1011.1 |
| 20260501192519 | 30 | 183 | 1.6 | 14.5 | 0.00 | 0.00 | 0.00 | 22 | 1011.2 |
| 20260501192018 | 30 | 193 | 0.0 | 1.6 | 0.00 | 0.00 | 0.00 | 23 | 1011.2 |
| 20260501191518 | 30 | 276 | 0.0 | 9.7 | 0.00 | 0.00 | 0.00 | 23 | 1011.3 |
| 20260501191238 | 30 | 215 | 1.6 | 14.5 | 0.00 | 0.00 | 0.00 | 23 | 1011.4 |
| 20260501190515 | 29 | 244 | 0.0 | 14.5 | 0.00 | 0.00 | 0.00 | 24 | 1011.5 |
| 20260501190016 | 29 | 153 | 1.6 | 17.7 | 0.00 | 0.00 | 0.00 | 24 | 1011.5 |
| 20260501185515 | 28 | 153 | 3.2 | 17.7 | 0.00 | 0.00 | 0.00 | 24 | 1011.6 |
| 20260501185017 | 29 | 169 | 4.8 | 14.5 | 0.00 | 0.00 | 0.00 | 24 | 1011.7 |
| 20260501184738 | 29 | 214 | 1.6 | 14.5 | 0.00 | 0.00 | 0.00 | 24 | 1011.6 |
| 20260501184017 | 28 | 215 | 0.0 | 3.2 | 0.00 | 0.00 | 0.00 | 25 | 1011.6 |
| 20260501183516 | 28 | 75 | 0.0 | 0.0 | 0.00 | 0.00 | 0.00 | 25 | 1011.7 |
| 20260501183014 | 28 | 75 | 1.6 | 12.9 | 0.00 | 0.00 | 0.00 | 26 | 1011.9 |
| 20260501182732 | 28 | 74 | 1.6 | 14.5 | 0.00 | 0.00 | 0.00 | 25 | 1011.9 |
| 20260501182015 | 28 | 119 | 1.6 | 16.1 | 0.00 | 0.00 | 0.00 | 25 | 1012.1 |
| 20260501181515 | 28 | 157 | 1.6 | 16.1 | 0.00 | 0.00 | 0.00 | 25 | 1012.2 |
| 20260501181015 | 28 | 160 | 0.0 | 12.9 | 0.00 | 0.00 | 0.00 | 25 | 1012.3 |
| 20260501180516 | 28 | 209 | 0.0 | 6.4 | 0.00 | 0.00 | 0.00 | 25 | 1012.3 |
| 20260501180015 | 28 | 210 | 0.0 | 6.4 | 0.00 | 0.00 | 0.00 | 26 | 1012.3 |
| 20260501175515 | 28 | 215 | 0.0 | 4.8 | 0.00 | 0.00 | 0.00 | 26 | 1012.4 |
| 20260501175015 | 28 | 224 | 0.0 | 9.7 | 0.00 | 0.00 | 0.00 | 26 | 1012.5 |
| 20260501174741 | 28 | 184 | 0.0 | 9.7 | 0.00 | 0.00 | 0.00 | 26 | 1012.5 |
| 20260501174012 | 28 | 196 | 0.0 | 3.2 | 0.00 | 0.00 | 0.00 | 26 | 1012.5 |
| 20260501173512 | 28 | 241 | 0.0 | 4.8 | 0.00 | 0.00 | 0.00 | 27 | 1012.5 |
| 20260501173013 | 28 | 219 | 0.0 | 4.8 | 0.00 | 0.00 | 0.00 | 28 | 1012.5 |
| 20260501172511 | 27 | 276 | 0.0 | 4.8 | 0.00 | 0.00 | 0.00 | 28 | 1012.5 |
| 20260501172013 | 27 | 256 | 3.2 | 14.5 | 0.00 | 0.00 | 0.00 | 29 | 1012.6 |
| 20260501171512 | 27 | 257 | 3.2 | 14.5 | 0.00 | 0.00 | 0.00 | 29 | 1012.6 |
| 20260501171013 | 27 | 169 | 0.0 | 8.0 | 0.00 | 0.00 | 0.00 | 29 | 1012.7 |
| 20260501170513 | 27 | 134 | 0.0 | 1.6 | 0.00 | 0.00 | 0.00 | 30 | 1012.7 |
| 20260501170014 | 26 | 19 | 0.0 | 9.7 | 0.00 | 0.00 | 0.00 | 30 | 1012.7 |
| 20260501165512 | 26 | 165 | 0.0 | 9.7 | 0.00 | 0.00 | 0.00 | 31 | 1012.7 |
| 20260501165010 | 26 | 200 | 0.0 | 12.9 | 0.00 | 0.00 | 0.00 | 31 | 1012.6 |
| 20260501164510 | 26 | 129 | 0.0 | 12.9 | 0.00 | 0.00 | 0.00 | 31 | 1012.5 |
| 20260501164009 | 26 | 230 | 4.8 | 14.5 | 0.00 | 0.00 | 0.00 | 31 | 1012.6 |
| 20260501163509 | 26 | 236 | 4.8 | 14.5 | 0.00 | 0.00 | 0.00 | 31 | 1012.6 |
| 20260501163011 | 26 | 224 | 1.6 | 14.5 | 0.00 | 0.00 | 0.00 | 31 | 1012.5 |
| 20260501162511 | 26 | 202 | 1.6 | 6.4 | 0.00 | 0.00 | 0.00 | 31 | 1012.6 |
| 20260501162012 | 26 | 217 | 1.6 | 9.7 | 0.00 | 0.00 | 0.00 | 31 | 1012.7 |
| 20260501161513 | 26 | 180 | 3.2 | 9.7 | 0.00 | 0.00 | 0.00 | 31 | 1012.7 |
| 20260501161012 | 26 | 186 | 1.6 | 11.3 | 0.00 | 0.00 | 0.00 | 32 | 1012.7 |
| 20260501160512 | 26 | 185 | 3.2 | 11.3 | 0.00 | 0.00 | 0.00 | 32 | 1012.6 |
| 20260501160014 | 26 | 176 | 3.2 | 11.3 | 0.00 | 0.00 | 0.00 | 32 | 1012.5 |
| 20260501155512 | 25 | 167 | 1.6 | 11.3 | 0.00 | 0.00 | 0.00 | 32 | 1012.4 |
| 20260501155011 | 25 | 158 | 0.0 | 4.8 | 0.00 | 0.00 | 0.00 | 32 | 1012.4 |
| 20260501154508 | 25 | 212 | 0.0 | 1.6 | 0.00 | 0.00 | 0.00 | 33 | 1012.4 |
| 20260501154230 | 25 | 206 | 0.0 | 0.0 | 0.00 | 0.00 | 0.00 | 32 | 1012.2 |
| 20260501153509 | 25 | 192 | 0.0 | 4.8 | 0.00 | 0.00 | 0.00 | 33 | 1012.2 |
| 20260501153006 | 25 | 215 | 0.0 | 4.8 | 0.00 | 0.00 | 0.00 | 32 | 1012.2 |